sensor_id;sensor_type;location;lat;lon;timestamp;P1;durP1;ratioP1;P2;durP2;ratioP2
7033;SDS011;3558;53.176;10.412;2024-02-15T03:46:23;2.60;;;1.85;;
7033;SDS011;3558;53.176;10.412;2024-02-15T03:48:48;1.60;;;1.50;;
7033;SDS011;3558;53.176;10.412;2024-02-15T03:51:17;1.83;;;1.50;;
7033;SDS011;3558;53.176;10.412;2024-02-15T03:53:48;1.88;;;1.70;;
7033;SDS011;3558;53.176;10.412;2024-02-15T03:56:13;2.17;;;1.52;;
7033;SDS011;3558;53.176;10.412;2024-02-15T03:58:39;1.67;;;1.40;;
7033;SDS011;3558;53.176;10.412;2024-02-15T04:01:05;1.60;;;1.47;;
7033;SDS011;3558;53.176;10.412;2024-02-15T04:03:31;1.40;;;1.30;;
7033;SDS011;3558;53.176;10.412;2024-02-15T04:05:59;1.60;;;1.50;;
7033;SDS011;3558;53.176;10.412;2024-02-15T04:08:25;1.40;;;1.30;;
7033;SDS011;3558;53.176;10.412;2024-02-15T04:10:50;1.55;;;1.40;;
7033;SDS011;3558;53.176;10.412;2024-02-15T04:13:16;1.50;;;1.40;;
7033;SDS011;3558;53.176;10.412;2024-02-15T04:15:41;1.60;;;1.45;;
7033;SDS011;3558;53.176;10.412;2024-02-15T04:18:08;1.83;;;1.40;;
7033;SDS011;3558;53.176;10.412;2024-02-15T04:20:37;1.50;;;1.20;;
7033;SDS011;3558;53.176;10.412;2024-02-15T04:23:02;1.60;;;1.50;;
7033;SDS011;3558;53.176;10.412;2024-02-15T04:25:29;1.70;;;1.30;;
7033;SDS011;3558;53.176;10.412;2024-02-15T04:27:56;1.45;;;1.35;;
7033;SDS011;3558;53.176;10.412;2024-02-15T04:30:22;1.40;;;1.30;;
7033;SDS011;3558;53.176;10.412;2024-02-15T04:32:48;1.40;;;1.30;;
7033;SDS011;3558;53.176;10.412;2024-02-15T04:35:14;1.40;;;1.30;;
7033;SDS011;3558;53.176;10.412;2024-02-15T04:37:40;1.40;;;1.20;;
7033;SDS011;3558;53.176;10.412;2024-02-15T04:40:06;1.53;;;1.43;;
7033;SDS011;3558;53.176;10.412;2024-02-15T04:42:35;1.83;;;1.50;;
7033;SDS011;3558;53.176;10.412;2024-02-15T04:45:04;1.58;;;1.30;;
7033;SDS011;3558;53.176;10.412;2024-02-15T04:47:33;1.40;;;1.30;;
7033;SDS011;3558;53.176;10.412;2024-02-15T04:49:59;1.50;;;1.38;;
7033;SDS011;3558;53.176;10.412;2024-02-15T04:52:25;1.80;;;1.40;;
7033;SDS011;3558;53.176;10.412;2024-02-15T04:54:50;1.50;;;1.40;;
7033;SDS011;3558;53.176;10.412;2024-02-15T04:57:18;1.50;;;1.40;;
7033;SDS011;3558;53.176;10.412;2024-02-15T04:59:44;1.50;;;1.40;;
7033;SDS011;3558;53.176;10.412;2024-02-15T05:02:12;1.52;;;1.42;;
7033;SDS011;3558;53.176;10.412;2024-02-15T05:04:38;2.33;;;1.80;;
7033;SDS011;3558;53.176;10.412;2024-02-15T05:07:03;1.65;;;1.55;;
7033;SDS011;3558;53.176;10.412;2024-02-15T05:09:29;1.73;;;1.63;;
7033;SDS011;3558;53.176;10.412;2024-02-15T05:11:56;1.60;;;1.50;;
7033;SDS011;3558;53.176;10.412;2024-02-15T05:14:24;1.60;;;1.50;;
7033;SDS011;3558;53.176;10.412;2024-02-15T05:16:51;1.70;;;1.60;;
7033;SDS011;3558;53.176;10.412;2024-02-15T05:19:17;1.60;;;1.50;;
7033;SDS011;3558;53.176;10.412;2024-02-15T05:21:43;2.22;;;1.60;;
7033;SDS011;3558;53.176;10.412;2024-02-15T05:24:14;1.80;;;1.50;;
7033;SDS011;3558;53.176;10.412;2024-02-15T05:26:41;1.73;;;1.50;;
7033;SDS011;3558;53.176;10.412;2024-02-15T05:29:09;1.65;;;1.55;;
7033;SDS011;3558;53.176;10.412;2024-02-15T05:31:36;2.10;;;1.77;;
7033;SDS011;3558;53.176;10.412;2024-02-15T05:34:03;1.60;;;1.40;;
7033;SDS011;3558;53.176;10.412;2024-02-15T05:36:29;1.50;;;1.35;;
7033;SDS011;3558;53.176;10.412;2024-02-15T05:38:55;1.58;;;1.48;;
7033;SDS011;3558;53.176;10.412;2024-02-15T05:41:22;1.52;;;1.40;;
7033;SDS011;3558;53.176;10.412;2024-02-15T05:43:47;1.70;;;1.47;;
7033;SDS011;3558;53.176;10.412;2024-02-15T05:46:13;1.90;;;1.70;;
7033;SDS011;3558;53.176;10.412;2024-02-15T05:48:39;1.80;;;1.60;;
7033;SDS011;3558;53.176;10.412;2024-02-15T05:51:05;1.75;;;1.65;;
7033;SDS011;3558;53.176;10.412;2024-02-15T05:53:34;2.00;;;1.60;;
7033;SDS011;3558;53.176;10.412;2024-02-15T05:56:01;1.85;;;1.55;;
7033;SDS011;3558;53.176;10.412;2024-02-15T05:58:31;1.70;;;1.60;;
7033;SDS011;3558;53.176;10.412;2024-02-15T06:00:57;1.70;;;1.60;;
7033;SDS011;3558;53.176;10.412;2024-02-15T06:03:29;1.50;;;1.40;;
7033;SDS011;3558;53.176;10.412;2024-02-15T06:05:56;1.65;;;1.50;;
7033;SDS011;3558;53.176;10.412;2024-02-15T06:08:24;2.00;;;1.65;;
7033;SDS011;3558;53.176;10.412;2024-02-15T06:10:50;2.08;;;1.70;;
7033;SDS011;3558;53.176;10.412;2024-02-15T06:13:15;2.20;;;1.70;;
7033;SDS011;3558;53.176;10.412;2024-02-15T06:15:41;1.70;;;1.50;;
7033;SDS011;3558;53.176;10.412;2024-02-15T06:18:07;1.90;;;1.70;;
7033;SDS011;3558;53.176;10.412;2024-02-15T06:20:35;2.50;;;1.90;;
7033;SDS011;3558;53.176;10.412;2024-02-15T06:23:01;2.33;;;1.95;;
7033;SDS011;3558;53.176;10.412;2024-02-15T06:25:30;2.00;;;1.80;;
7033;SDS011;3558;53.176;10.412;2024-02-15T06:27:56;2.10;;;1.90;;
7033;SDS011;3558;53.176;10.412;2024-02-15T06:30:27;2.78;;;2.10;;
7033;SDS011;3558;53.176;10.412;2024-02-15T06:33:12;1.98;;;1.80;;
7033;SDS011;3558;53.176;10.412;2024-02-15T06:35:57;2.13;;;1.92;;
7033;SDS011;3558;53.176;10.412;2024-02-15T06:38:41;2.30;;;2.10;;
7033;SDS011;3558;53.176;10.412;2024-02-15T06:41:25;2.38;;;2.03;;
7033;SDS011;3558;53.176;10.412;2024-02-15T06:43:51;2.17;;;1.95;;
7033;SDS011;3558;53.176;10.412;2024-02-15T06:46:16;2.30;;;2.10;;
7033;SDS011;3558;53.176;10.412;2024-02-15T06:48:44;2.13;;;1.90;;
7033;SDS011;3558;53.176;10.412;2024-02-15T06:51:12;2.83;;;2.47;;
7033;SDS011;3558;53.176;10.412;2024-02-15T06:53:39;2.83;;;2.50;;
7033;SDS011;3558;53.176;10.412;2024-02-15T06:56:05;2.50;;;2.30;;
7033;SDS011;3558;53.176;10.412;2024-02-15T06:58:35;2.70;;;2.40;;
7033;SDS011;3558;53.176;10.412;2024-02-15T07:01:05;2.65;;;2.45;;
7033;SDS011;3558;53.176;10.412;2024-02-15T07:03:30;2.93;;;2.63;;
7033;SDS011;3558;53.176;10.412;2024-02-15T07:05:57;3.15;;;2.85;;
7033;SDS011;3558;53.176;10.412;2024-02-15T07:08:22;3.17;;;2.40;;
7033;SDS011;3558;53.176;10.412;2024-02-15T07:10:49;2.53;;;2.30;;
7033;SDS011;3558;53.176;10.412;2024-02-15T07:13:16;2.87;;;2.47;;
7033;SDS011;3558;53.176;10.412;2024-02-15T07:15:42;2.73;;;2.53;;
7033;SDS011;3558;53.176;10.412;2024-02-15T07:18:09;2.60;;;2.40;;
7033;SDS011;3558;53.176;10.412;2024-02-15T07:20:37;2.90;;;2.60;;
7033;SDS011;3558;53.176;10.412;2024-02-15T07:23:02;2.50;;;2.30;;
7033;SDS011;3558;53.176;10.412;2024-02-15T07:25:28;2.38;;;2.17;;
7033;SDS011;3558;53.176;10.412;2024-02-15T07:27:54;2.47;;;2.10;;
7033;SDS011;3558;53.176;10.412;2024-02-15T07:30:19;2.43;;;2.13;;
7033;SDS011;3558;53.176;10.412;2024-02-15T07:32:45;2.50;;;2.20;;
7033;SDS011;3558;53.176;10.412;2024-02-15T07:35:11;2.58;;;2.33;;
7033;SDS011;3558;53.176;10.412;2024-02-15T07:37:36;2.63;;;2.22;;
7033;SDS011;3558;53.176;10.412;2024-02-15T07:40:05;2.20;;;2.00;;
7033;SDS011;3558;53.176;10.412;2024-02-15T07:42:32;2.10;;;1.90;;
7033;SDS011;3558;53.176;10.412;2024-02-15T07:44:59;2.60;;;2.10;;
7033;SDS011;3558;53.176;10.412;2024-02-15T07:47:25;2.28;;;1.95;;
7033;SDS011;3558;53.176;10.412;2024-02-15T07:49:51;2.33;;;2.00;;
7033;SDS011;3558;53.176;10.412;2024-02-15T07:52:17;2.22;;;2.03;;
7033;SDS011;3558;53.176;10.412;2024-02-15T07:54:43;2.10;;;1.85;;
7033;SDS011;3558;53.176;10.412;2024-02-15T07:57:08;2.00;;;1.80;;
7033;SDS011;3558;53.176;10.412;2024-02-15T07:59:34;2.00;;;1.80;;
7033;SDS011;3558;53.176;10.412;2024-02-15T08:02:00;2.20;;;1.90;;
7033;SDS011;3558;53.176;10.412;2024-02-15T08:04:26;2.50;;;2.00;;
7033;SDS011;3558;53.176;10.412;2024-02-15T08:06:53;2.30;;;1.83;;
7033;SDS011;3558;53.176;10.412;2024-02-15T08:09:19;2.80;;;2.00;;
7033;SDS011;3558;53.176;10.412;2024-02-15T08:11:47;2.10;;;1.90;;
7033;SDS011;3558;53.176;10.412;2024-02-15T08:14:13;2.42;;;2.00;;
7033;SDS011;3558;53.176;10.412;2024-02-15T08:16:39;1.93;;;1.80;;
7033;SDS011;3558;53.176;10.412;2024-02-15T08:19:05;1.83;;;1.73;;
7033;SDS011;3558;53.176;10.412;2024-02-15T08:21:32;2.10;;;1.90;;
7033;SDS011;3558;53.176;10.412;2024-02-15T08:23:59;1.98;;;1.77;;
7033;SDS011;3558;53.176;10.412;2024-02-15T08:26:26;1.98;;;1.77;;
7033;SDS011;3558;53.176;10.412;2024-02-15T08:28:52;1.88;;;1.70;;
7033;SDS011;3558;53.176;10.412;2024-02-15T08:31:17;1.80;;;1.63;;
7033;SDS011;3558;53.176;10.412;2024-02-15T08:33:44;1.60;;;1.50;;
7033;SDS011;3558;53.176;10.412;2024-02-15T08:36:11;1.52;;;1.30;;
7033;SDS011;3558;53.176;10.412;2024-02-15T08:38:38;1.67;;;1.50;;
7033;SDS011;3558;53.176;10.412;2024-02-15T08:41:04;1.40;;;1.30;;
7033;SDS011;3558;53.176;10.412;2024-02-15T08:43:30;1.42;;;1.33;;
7033;SDS011;3558;53.176;10.412;2024-02-15T08:45:57;1.80;;;1.40;;
7033;SDS011;3558;53.176;10.412;2024-02-15T08:48:23;1.80;;;1.50;;
7033;SDS011;3558;53.176;10.412;2024-02-15T08:50:49;1.30;;;1.20;;
7033;SDS011;3558;53.176;10.412;2024-02-15T08:53:14;1.47;;;1.37;;
7033;SDS011;3558;53.176;10.412;2024-02-15T08:55:40;1.30;;;1.20;;
7033;SDS011;3558;53.176;10.412;2024-02-15T08:58:06;1.40;;;1.30;;
7033;SDS011;3558;53.176;10.412;2024-02-15T09:00:34;1.60;;;1.20;;
7033;SDS011;3558;53.176;10.412;2024-02-15T09:03:00;1.27;;;1.17;;
7033;SDS011;3558;53.176;10.412;2024-02-15T09:05:26;1.20;;;1.10;;
7033;SDS011;3558;53.176;10.412;2024-02-15T09:07:52;1.27;;;1.13;;
7033;SDS011;3558;53.176;10.412;2024-02-15T09:10:18;1.30;;;1.13;;
7033;SDS011;3558;53.176;10.412;2024-02-15T09:12:44;1.40;;;1.10;;
7033;SDS011;3558;53.176;10.412;2024-02-15T09:15:14;1.20;;;1.10;;
7033;SDS011;3558;53.176;10.412;2024-02-15T09:17:40;1.30;;;1.13;;
7033;SDS011;3558;53.176;10.412;2024-02-15T09:20:06;1.45;;;1.00;;
7033;SDS011;3558;53.176;10.412;2024-02-15T09:22:33;1.30;;;1.10;;
7033;SDS011;3558;53.176;10.412;2024-02-15T09:25:00;1.55;;;1.08;;
7033;SDS011;3558;53.176;10.412;2024-02-15T09:27:29;1.33;;;1.10;;
7033;SDS011;3558;53.176;10.412;2024-02-15T09:29:54;1.10;;;1.00;;
7033;SDS011;3558;53.176;10.412;2024-02-15T09:32:20;1.35;;;1.15;;
7033;SDS011;3558;53.176;10.412;2024-02-15T09:34:47;1.20;;;1.10;;
7033;SDS011;3558;53.176;10.412;2024-02-15T09:37:13;1.40;;;1.10;;
7033;SDS011;3558;53.176;10.412;2024-02-15T09:39:39;1.30;;;1.17;;
7033;SDS011;3558;53.176;10.412;2024-02-15T09:42:04;1.30;;;1.20;;
7033;SDS011;3558;53.176;10.412;2024-02-15T09:44:30;1.40;;;1.10;;
7033;SDS011;3558;53.176;10.412;2024-02-15T09:47:00;2.20;;;1.23;;
7033;SDS011;3558;53.176;10.412;2024-02-15T09:49:37;1.55;;;1.38;;
7033;SDS011;3558;53.176;10.412;2024-02-15T09:52:04;2.03;;;1.45;;
7033;SDS011;3558;53.176;10.412;2024-02-15T09:54:36;2.15;;;1.38;;
7033;SDS011;3558;53.176;10.412;2024-02-15T09:57:04;1.80;;;1.42;;
7033;SDS011;3558;53.176;10.412;2024-02-15T09:59:30;2.40;;;1.63;;
7033;SDS011;3558;53.176;10.412;2024-02-15T10:01:58;1.80;;;1.50;;
7033;SDS011;3558;53.176;10.412;2024-02-15T10:04:24;2.60;;;1.90;;
7033;SDS011;3558;53.176;10.412;2024-02-15T10:06:50;2.17;;;1.80;;
7033;SDS011;3558;53.176;10.412;2024-02-15T10:11:58;2.38;;;2.17;;
7033;SDS011;3558;53.176;10.412;2024-02-15T10:14:28;2.42;;;2.17;;
7033;SDS011;3558;53.176;10.412;2024-02-15T10:16:54;3.73;;;2.70;;
7033;SDS011;3558;53.176;10.412;2024-02-15T10:19:20;3.33;;;2.60;;
7033;SDS011;3558;53.176;10.412;2024-02-15T10:21:53;2.95;;;2.53;;
7033;SDS011;3558;53.176;10.412;2024-02-15T10:24:22;3.55;;;2.92;;
7033;SDS011;3558;53.176;10.412;2024-02-15T10:26:49;4.28;;;3.10;;
7033;SDS011;3558;53.176;10.412;2024-02-15T10:29:15;3.90;;;3.00;;
7033;SDS011;3558;53.176;10.412;2024-02-15T10:31:55;4.38;;;3.38;;
7033;SDS011;3558;53.176;10.412;2024-02-15T10:34:22;3.97;;;3.57;;
7033;SDS011;3558;53.176;10.412;2024-02-15T10:36:48;5.60;;;4.43;;
7033;SDS011;3558;53.176;10.412;2024-02-15T10:39:15;5.30;;;4.03;;
7033;SDS011;3558;53.176;10.412;2024-02-15T10:41:44;4.57;;;3.80;;
7033;SDS011;3558;53.176;10.412;2024-02-15T10:44:15;5.60;;;4.72;;
7033;SDS011;3558;53.176;10.412;2024-02-15T10:46:42;5.68;;;4.68;;
7033;SDS011;3558;53.176;10.412;2024-02-15T10:49:09;6.65;;;5.18;;
7033;SDS011;3558;53.176;10.412;2024-02-15T10:51:35;5.90;;;5.30;;
7033;SDS011;3558;53.176;10.412;2024-02-15T10:54:03;6.00;;;5.35;;
7033;SDS011;3558;53.176;10.412;2024-02-15T10:56:34;5.88;;;5.38;;
7033;SDS011;3558;53.176;10.412;2024-02-15T10:59:16;7.10;;;5.85;;
7033;SDS011;3558;53.176;10.412;2024-02-15T11:01:44;5.90;;;5.32;;
7033;SDS011;3558;53.176;10.412;2024-02-15T11:04:12;6.40;;;5.70;;
7033;SDS011;3558;53.176;10.412;2024-02-15T11:06:40;7.00;;;6.30;;
7033;SDS011;3558;53.176;10.412;2024-02-15T11:09:09;6.53;;;5.80;;
7033;SDS011;3558;53.176;10.412;2024-02-15T11:11:36;7.00;;;5.85;;
7033;SDS011;3558;53.176;10.412;2024-02-15T11:17:03;6.97;;;5.95;;
7033;SDS011;3558;53.176;10.412;2024-02-15T11:22:00;6.20;;;5.60;;
7033;SDS011;3558;53.176;10.412;2024-02-15T11:24:31;6.55;;;5.85;;
7033;SDS011;3558;53.176;10.412;2024-02-15T11:27:01;6.57;;;5.97;;
7033;SDS011;3558;53.176;10.412;2024-02-15T11:35:03;6.35;;;5.72;;
7033;SDS011;3558;53.176;10.412;2024-02-15T11:38:00;5.95;;;5.35;;
7033;SDS011;3558;53.176;10.412;2024-02-15T11:40:29;5.97;;;5.38;;
7033;SDS011;3558;53.176;10.412;2024-02-15T11:46:17;5.75;;;5.25;;
7033;SDS011;3558;53.176;10.412;2024-02-15T11:48:47;5.80;;;5.30;;
7033;SDS011;3558;53.176;10.412;2024-02-15T11:51:26;6.25;;;5.22;;
7033;SDS011;3558;53.176;10.412;2024-02-15T11:53:58;5.90;;;5.07;;
7033;SDS011;3558;53.176;10.412;2024-02-15T11:56:30;5.68;;;5.13;;
7033;SDS011;3558;53.176;10.412;2024-02-15T11:59:04;5.72;;;5.13;;
7033;SDS011;3558;53.176;10.412;2024-02-15T12:01:33;5.70;;;5.10;;
7033;SDS011;3558;53.176;10.412;2024-02-15T12:04:18;5.30;;;4.60;;
7033;SDS011;3558;53.176;10.412;2024-02-15T12:07:02;5.45;;;4.78;;
7033;SDS011;3558;53.176;10.412;2024-02-15T12:09:46;5.38;;;4.88;;
7033;SDS011;3558;53.176;10.412;2024-02-15T12:12:30;4.50;;;4.10;;
7033;SDS011;3558;53.176;10.412;2024-02-15T12:15:14;4.85;;;4.30;;
7033;SDS011;3558;53.176;10.412;2024-02-15T12:18:14;5.68;;;3.97;;
7033;SDS011;3558;53.176;10.412;2024-02-15T12:20:59;4.30;;;3.60;;
7033;SDS011;3558;53.176;10.412;2024-02-15T12:23:25;4.22;;;3.83;;
7033;SDS011;3558;53.176;10.412;2024-02-15T12:25:51;4.35;;;3.63;;
7033;SDS011;3558;53.176;10.412;2024-02-15T12:28:17;4.93;;;3.80;;
7033;SDS011;3558;53.176;10.412;2024-02-15T12:30:43;4.70;;;3.40;;
7033;SDS011;3558;53.176;10.412;2024-02-15T12:33:09;4.78;;;3.42;;
7033;SDS011;3558;53.176;10.412;2024-02-15T12:35:37;4.68;;;3.60;;
7033;SDS011;3558;53.176;10.412;2024-02-15T12:38:03;4.05;;;3.25;;
7033;SDS011;3558;53.176;10.412;2024-02-15T12:40:30;3.90;;;3.10;;
7033;SDS011;3558;53.176;10.412;2024-02-15T12:42:57;4.40;;;3.10;;
7033;SDS011;3558;53.176;10.412;2024-02-15T12:45:25;3.70;;;2.80;;
7033;SDS011;3558;53.176;10.412;2024-02-15T12:47:55;4.80;;;2.80;;
7033;SDS011;3558;53.176;10.412;2024-02-15T12:50:28;4.80;;;2.60;;
7033;SDS011;3558;53.176;10.412;2024-02-15T12:52:54;2.55;;;2.35;;
7033;SDS011;3558;53.176;10.412;2024-02-15T12:55:21;3.35;;;2.30;;
7033;SDS011;3558;53.176;10.412;2024-02-15T12:57:52;3.73;;;2.20;;
7033;SDS011;3558;53.176;10.412;2024-02-15T13:00:21;2.95;;;1.90;;
7033;SDS011;3558;53.176;10.412;2024-02-15T13:02:53;2.80;;;1.90;;
7033;SDS011;3558;53.176;10.412;2024-02-15T13:05:19;2.70;;;1.75;;
7033;SDS011;3558;53.176;10.412;2024-02-15T13:07:46;2.55;;;1.60;;
7033;SDS011;3558;53.176;10.412;2024-02-15T13:10:15;2.60;;;1.50;;
7033;SDS011;3558;53.176;10.412;2024-02-15T13:12:42;3.00;;;1.65;;
7033;SDS011;3558;53.176;10.412;2024-02-15T13:15:09;2.10;;;1.55;;
7033;SDS011;3558;53.176;10.412;2024-02-15T13:17:39;2.35;;;1.45;;
7033;SDS011;3558;53.176;10.412;2024-02-15T13:20:09;1.92;;;1.40;;
7033;SDS011;3558;53.176;10.412;2024-02-15T13:22:38;2.13;;;1.20;;
7033;SDS011;3558;53.176;10.412;2024-02-15T13:25:07;1.90;;;1.50;;
7033;SDS011;3558;53.176;10.412;2024-02-15T13:27:34;1.92;;;1.25;;
7033;SDS011;3558;53.176;10.412;2024-02-15T13:30:01;2.00;;;1.07;;
7033;SDS011;3558;53.176;10.412;2024-02-15T13:32:27;2.80;;;1.20;;
7033;SDS011;3558;53.176;10.412;2024-02-15T13:34:52;1.33;;;1.20;;
7033;SDS011;3558;53.176;10.412;2024-02-15T13:37:21;1.70;;;1.10;;
7033;SDS011;3558;53.176;10.412;2024-02-15T13:39:48;2.10;;;1.27;;
7033;SDS011;3558;53.176;10.412;2024-02-15T13:42:14;1.55;;;1.00;;
7033;SDS011;3558;53.176;10.412;2024-02-15T13:44:41;1.85;;;1.10;;
7033;SDS011;3558;53.176;10.412;2024-02-15T13:47:07;1.33;;;1.03;;
7033;SDS011;3558;53.176;10.412;2024-02-15T13:49:33;2.20;;;1.10;;
7033;SDS011;3558;53.176;10.412;2024-02-15T13:51:59;1.55;;;1.00;;
7033;SDS011;3558;53.176;10.412;2024-02-15T13:54:28;2.10;;;1.20;;
7033;SDS011;3558;53.176;10.412;2024-02-15T13:56:55;1.58;;;1.02;;
7033;SDS011;3558;53.176;10.412;2024-02-15T13:59:21;1.63;;;1.10;;
7033;SDS011;3558;53.176;10.412;2024-02-15T14:01:48;2.13;;;1.35;;
7033;SDS011;3558;53.176;10.412;2024-02-15T14:04:15;2.40;;;1.30;;
7033;SDS011;3558;53.176;10.412;2024-02-15T14:06:44;2.65;;;1.30;;
7033;SDS011;3558;53.176;10.412;2024-02-15T14:09:12;2.70;;;1.10;;
7033;SDS011;3558;53.176;10.412;2024-02-15T14:11:38;1.98;;;1.30;;
7033;SDS011;3558;53.176;10.412;2024-02-15T14:14:05;1.60;;;1.27;;
7033;SDS011;3558;53.176;10.412;2024-02-15T14:16:30;2.33;;;1.20;;
7033;SDS011;3558;53.176;10.412;2024-02-15T14:18:58;1.80;;;1.30;;
7033;SDS011;3558;53.176;10.412;2024-02-15T14:21:24;1.75;;;1.20;;
7033;SDS011;3558;53.176;10.412;2024-02-15T14:23:50;2.28;;;1.20;;
7033;SDS011;3558;53.176;10.412;2024-02-15T14:26:15;1.97;;;1.03;;
7033;SDS011;3558;53.176;10.412;2024-02-15T14:28:42;1.77;;;1.10;;
7033;SDS011;3558;53.176;10.412;2024-02-15T14:31:09;1.85;;;1.10;;
7033;SDS011;3558;53.176;10.412;2024-02-15T14:33:54;1.67;;;1.30;;
7033;SDS011;3558;53.176;10.412;2024-02-15T14:36:20;1.60;;;1.00;;
7033;SDS011;3558;53.176;10.412;2024-02-15T14:38:45;2.47;;;1.20;;
7033;SDS011;3558;53.176;10.412;2024-02-15T14:41:11;1.70;;;1.00;;
7033;SDS011;3558;53.176;10.412;2024-02-15T14:43:37;1.80;;;1.20;;
7033;SDS011;3558;53.176;10.412;2024-02-15T14:46:03;2.10;;;1.10;;
7033;SDS011;3558;53.176;10.412;2024-02-15T14:48:30;1.45;;;1.10;;
7033;SDS011;3558;53.176;10.412;2024-02-15T14:50:57;1.43;;;1.10;;
7033;SDS011;3558;53.176;10.412;2024-02-15T14:53:22;2.50;;;1.30;;
7033;SDS011;3558;53.176;10.412;2024-02-15T14:55:49;2.53;;;1.58;;
7033;SDS011;3558;53.176;10.412;2024-02-15T14:58:15;2.28;;;1.50;;
7033;SDS011;3558;53.176;10.412;2024-02-15T15:00:43;2.10;;;1.33;;
7033;SDS011;3558;53.176;10.412;2024-02-15T15:03:10;2.03;;;1.35;;
7033;SDS011;3558;53.176;10.412;2024-02-15T15:05:38;2.50;;;1.50;;
7033;SDS011;3558;53.176;10.412;2024-02-15T15:08:22;2.42;;;1.38;;
7033;SDS011;3558;53.176;10.412;2024-02-15T15:11:06;2.15;;;1.50;;
7033;SDS011;3558;53.176;10.412;2024-02-15T15:13:50;2.17;;;1.35;;
7033;SDS011;3558;53.176;10.412;2024-02-15T15:16:16;2.53;;;1.40;;
7033;SDS011;3558;53.176;10.412;2024-02-15T15:18:46;2.95;;;1.38;;
7033;SDS011;3558;53.176;10.412;2024-02-15T15:21:12;2.47;;;1.42;;
7033;SDS011;3558;53.176;10.412;2024-02-15T15:23:38;1.92;;;1.40;;
7033;SDS011;3558;53.176;10.412;2024-02-15T15:26:04;2.30;;;1.27;;
7033;SDS011;3558;53.176;10.412;2024-02-15T15:28:31;2.45;;;1.30;;
7033;SDS011;3558;53.176;10.412;2024-02-15T15:30:56;3.03;;;1.45;;
7033;SDS011;3558;53.176;10.412;2024-02-15T15:33:22;2.10;;;1.30;;
7033;SDS011;3558;53.176;10.412;2024-02-15T15:35:48;2.00;;;1.40;;
7033;SDS011;3558;53.176;10.412;2024-02-15T15:38:14;2.75;;;1.20;;
7033;SDS011;3558;53.176;10.412;2024-02-15T15:40:39;1.60;;;1.20;;
7033;SDS011;3558;53.176;10.412;2024-02-15T15:43:06;2.23;;;1.40;;
7033;SDS011;3558;53.176;10.412;2024-02-15T15:45:32;2.07;;;1.30;;
7033;SDS011;3558;53.176;10.412;2024-02-15T15:47:58;1.70;;;1.20;;
7033;SDS011;3558;53.176;10.412;2024-02-15T15:50:25;2.25;;;1.17;;
7033;SDS011;3558;53.176;10.412;2024-02-15T15:52:53;2.38;;;1.35;;
7033;SDS011;3558;53.176;10.412;2024-02-15T15:55:18;1.63;;;1.10;;
7033;SDS011;3558;53.176;10.412;2024-02-15T15:57:44;1.70;;;1.30;;
7033;SDS011;3558;53.176;10.412;2024-02-15T16:00:11;1.75;;;1.10;;
7033;SDS011;3558;53.176;10.412;2024-02-15T16:02:41;2.30;;;1.30;;
7033;SDS011;3558;53.176;10.412;2024-02-15T16:05:17;1.77;;;1.30;;
7033;SDS011;3558;53.176;10.412;2024-02-15T16:07:44;1.30;;;1.08;;
7033;SDS011;3558;53.176;10.412;2024-02-15T16:10:10;1.35;;;1.00;;
7033;SDS011;3558;53.176;10.412;2024-02-15T16:12:36;1.70;;;1.08;;
7033;SDS011;3558;53.176;10.412;2024-02-15T16:15:06;1.30;;;1.00;;
7033;SDS011;3558;53.176;10.412;2024-02-15T16:17:38;1.95;;;1.20;;
7033;SDS011;3558;53.176;10.412;2024-02-15T16:20:04;1.73;;;1.20;;
7033;SDS011;3558;53.176;10.412;2024-02-15T16:22:33;2.42;;;1.20;;
7033;SDS011;3558;53.176;10.412;2024-02-15T16:25:02;2.17;;;1.20;;
7033;SDS011;3558;53.176;10.412;2024-02-15T16:27:33;1.48;;;1.00;;
7033;SDS011;3558;53.176;10.412;2024-02-15T16:30:03;2.10;;;1.38;;
7033;SDS011;3558;53.176;10.412;2024-02-15T16:32:30;2.15;;;1.08;;
7033;SDS011;3558;53.176;10.412;2024-02-15T16:34:56;1.95;;;1.10;;
7033;SDS011;3558;53.176;10.412;2024-02-15T16:37:23;1.60;;;1.00;;
7033;SDS011;3558;53.176;10.412;2024-02-15T16:39:49;1.58;;;1.08;;
7033;SDS011;3558;53.176;10.412;2024-02-15T16:42:15;1.63;;;1.10;;
7033;SDS011;3558;53.176;10.412;2024-02-15T16:44:41;1.73;;;1.08;;
7033;SDS011;3558;53.176;10.412;2024-02-15T16:47:07;1.40;;;0.90;;
7033;SDS011;3558;53.176;10.412;2024-02-15T16:49:32;1.83;;;1.00;;
7033;SDS011;3558;53.176;10.412;2024-02-15T16:51:58;1.38;;;1.15;;
7033;SDS011;3558;53.176;10.412;2024-02-15T16:54:23;1.90;;;1.20;;
7033;SDS011;3558;53.176;10.412;2024-02-15T16:56:52;1.33;;;0.90;;
7033;SDS011;3558;53.176;10.412;2024-02-15T16:59:18;1.17;;;0.90;;
7033;SDS011;3558;53.176;10.412;2024-02-15T17:01:44;1.52;;;0.98;;
7033;SDS011;3558;53.176;10.412;2024-02-15T17:04:10;2.10;;;1.00;;
7033;SDS011;3558;53.176;10.412;2024-02-15T17:06:35;1.20;;;1.00;;
7033;SDS011;3558;53.176;10.412;2024-02-15T17:09:01;1.70;;;1.00;;
7033;SDS011;3558;53.176;10.412;2024-02-15T17:11:28;1.52;;;0.90;;
7033;SDS011;3558;53.176;10.412;2024-02-15T17:13:53;1.60;;;1.00;;
7033;SDS011;3558;53.176;10.412;2024-02-15T17:16:22;1.30;;;1.00;;
7033;SDS011;3558;53.176;10.412;2024-02-15T17:18:48;1.38;;;1.00;;
7033;SDS011;3558;53.176;10.412;2024-02-15T17:21:15;1.50;;;0.98;;
7033;SDS011;3558;53.176;10.412;2024-02-15T17:23:41;1.87;;;1.00;;
7033;SDS011;3558;53.176;10.412;2024-02-15T17:26:08;1.60;;;1.00;;
7033;SDS011;3558;53.176;10.412;2024-02-15T17:28:34;1.10;;;0.90;;
7033;SDS011;3558;53.176;10.412;2024-02-15T17:31:00;1.35;;;0.90;;
7033;SDS011;3558;53.176;10.412;2024-02-15T17:33:25;1.70;;;0.90;;
7033;SDS011;3558;53.176;10.412;2024-02-15T17:35:52;1.40;;;1.00;;
7033;SDS011;3558;53.176;10.412;2024-02-15T17:38:19;1.00;;;0.90;;
7033;SDS011;3558;53.176;10.412;2024-02-15T17:40:44;1.55;;;1.10;;
7033;SDS011;3558;53.176;10.412;2024-02-15T17:43:10;1.60;;;0.83;;
7033;SDS011;3558;53.176;10.412;2024-02-15T17:45:35;1.17;;;0.93;;
7033;SDS011;3558;53.176;10.412;2024-02-15T17:48:01;2.27;;;1.00;;
7033;SDS011;3558;53.176;10.412;2024-02-15T17:50:26;1.83;;;1.00;;
7033;SDS011;3558;53.176;10.412;2024-02-15T17:52:52;1.85;;;1.00;;
7033;SDS011;3558;53.176;10.412;2024-02-15T17:55:18;1.25;;;0.93;;
7033;SDS011;3558;53.176;10.412;2024-02-15T17:57:47;1.60;;;1.10;;
7033;SDS011;3558;53.176;10.412;2024-02-15T18:00:12;0.98;;;0.82;;
7033;SDS011;3558;53.176;10.412;2024-02-15T18:02:40;1.50;;;1.10;;
7033;SDS011;3558;53.176;10.412;2024-02-15T18:05:08;1.85;;;0.93;;
7033;SDS011;3558;53.176;10.412;2024-02-15T18:07:35;2.10;;;1.05;;
7033;SDS011;3558;53.176;10.412;2024-02-15T18:10:01;1.27;;;0.90;;
7033;SDS011;3558;53.176;10.412;2024-02-15T18:12:30;1.73;;;1.00;;
7033;SDS011;3558;53.176;10.412;2024-02-15T18:14:58;1.33;;;1.10;;
7033;SDS011;3558;53.176;10.412;2024-02-15T18:17:23;1.23;;;1.00;;
7033;SDS011;3558;53.176;10.412;2024-02-15T18:19:49;1.70;;;1.03;;
7033;SDS011;3558;53.176;10.412;2024-02-15T18:22:15;2.20;;;1.10;;
7033;SDS011;3558;53.176;10.412;2024-02-15T18:24:41;1.30;;;1.02;;
7033;SDS011;3558;53.176;10.412;2024-02-15T18:27:07;1.27;;;1.08;;
7033;SDS011;3558;53.176;10.412;2024-02-15T18:29:33;1.47;;;1.00;;
7033;SDS011;3558;53.176;10.412;2024-02-15T18:31:58;1.30;;;1.00;;
7033;SDS011;3558;53.176;10.412;2024-02-15T18:34:24;1.23;;;1.10;;
7033;SDS011;3558;53.176;10.412;2024-02-15T18:36:49;1.60;;;1.15;;
7033;SDS011;3558;53.176;10.412;2024-02-15T18:39:15;1.23;;;1.13;;
7033;SDS011;3558;53.176;10.412;2024-02-15T18:41:40;1.60;;;1.30;;
7033;SDS011;3558;53.176;10.412;2024-02-15T18:44:11;1.30;;;1.10;;
7033;SDS011;3558;53.176;10.412;2024-02-15T18:46:36;1.70;;;1.30;;
7033;SDS011;3558;53.176;10.412;2024-02-15T18:49:02;2.17;;;1.20;;
7033;SDS011;3558;53.176;10.412;2024-02-15T18:51:27;1.53;;;1.20;;
7033;SDS011;3558;53.176;10.412;2024-02-15T18:53:53;2.00;;;1.20;;
7033;SDS011;3558;53.176;10.412;2024-02-15T18:56:19;1.77;;;1.27;;
7033;SDS011;3558;53.176;10.412;2024-02-15T18:58:45;1.85;;;1.23;;
7033;SDS011;3558;53.176;10.412;2024-02-15T19:01:11;1.63;;;1.20;;
7033;SDS011;3558;53.176;10.412;2024-02-15T19:03:38;1.85;;;1.33;;
7033;SDS011;3558;53.176;10.412;2024-02-15T19:06:05;1.85;;;1.20;;